Time,TemperatureF,DewpointF,PressureIn,WindDirection,WindDirectionDegrees,WindSpeedMPH,WindSpeedGustMPH,Humidity,HourlyPrecipIn,Conditions,Clouds,dailyrainin,SolarRadiationWatts/m^2,SoftwareType,DateUTC
2013-02-24 00:22:00,23.0,20.0,-100.00,NW,326,3.0,6.0,89,0.00,,,0.00,1.000000,,2013-02-24 05:22:00,
2013-02-24 00:32:00,23.0,20.0,-100.00,NW,326,3.0,6.0,89,0.00,,,0.00,1.000000,,2013-02-24 05:32:00,
2013-02-24 00:42:00,23.0,20.0,-100.00,NW,326,3.0,6.0,89,0.00,,,0.00,1.000000,,2013-02-24 05:42:00,
2013-02-24 00:52:00,23.0,20.0,-100.00,NW,326,3.0,6.0,89,0.00,,,0.00,1.000000,,2013-02-24 05:52:00,
2013-02-24 01:21:00,22.0,19.0,-100.00,West,276,0.0,5.0,88,0.00,,,0.00,1.000000,,2013-02-24 06:21:00,
2013-02-24 01:32:00,22.0,19.0,-100.00,West,276,0.0,5.0,88,0.00,,,0.00,1.000000,,2013-02-24 06:32:00,
2013-02-24 01:42:00,22.0,19.0,-100.00,West,276,0.0,5.0,88,0.00,,,0.00,1.000000,,2013-02-24 06:42:00,
2013-02-24 01:52:00,22.0,19.0,-100.00,West,276,0.0,5.0,88,0.00,,,0.00,1.000000,,2013-02-24 06:52:00,
2013-02-24 02:21:00,22.0,20.0,-100.00,WNW,299,2.0,5.0,91,0.00,,,0.00,1.000000,,2013-02-24 07:21:00,
2013-02-24 02:32:00,22.0,20.0,-100.00,WNW,299,2.0,5.0,91,0.00,,,0.00,1.000000,,2013-02-24 07:32:00,
2013-02-24 02:42:00,22.0,20.0,-100.00,WNW,299,2.0,5.0,91,0.00,,,0.00,1.000000,,2013-02-24 07:42:00,
2013-02-24 02:51:00,22.0,20.0,-100.00,WNW,299,2.0,5.0,91,0.00,,,0.00,1.000000,,2013-02-24 07:51:00,
2013-02-24 03:22:00,17.0,15.0,-100.00,WNW,282,0.0,4.0,90,0.00,,,0.00,1.000000,,2013-02-24 08:22:00,
2013-02-24 03:31:00,17.0,15.0,-100.00,WNW,282,0.0,4.0,90,0.00,,,0.00,1.000000,,2013-02-24 08:31:00,
2013-02-24 03:42:00,17.0,15.0,-100.00,WNW,282,0.0,4.0,90,0.00,,,0.00,1.000000,,2013-02-24 08:42:00,
2013-02-24 03:53:00,17.0,15.0,-100.00,WNW,282,0.0,4.0,90,0.00,,,0.00,1.000000,,2013-02-24 08:53:00,
2013-02-24 04:21:00,19.0,17.0,-100.00,NNE,22,0.0,1.0,91,0.00,,,0.00,1.000000,,2013-02-24 09:21:00,
2013-02-24 04:31:00,19.0,17.0,-100.00,NNE,22,0.0,1.0,91,0.00,,,0.00,1.000000,,2013-02-24 09:31:00,
2013-02-24 04:42:00,19.0,17.0,-100.00,NNE,22,0.0,1.0,91,0.00,,,0.00,1.000000,,2013-02-24 09:42:00,
2013-02-24 04:51:00,19.0,17.0,-100.00,NNE,22,0.0,1.0,91,0.00,,,0.00,1.000000,,2013-02-24 09:51:00,
2013-02-24 05:21:00,19.0,17.0,-100.00,NNW,340,1.0,1.0,91,0.00,,,0.00,1.000000,,2013-02-24 10:21:00,
2013-02-24 05:32:00,19.0,17.0,-100.00,NNW,340,1.0,1.0,91,0.00,,,0.00,1.000000,,2013-02-24 10:32:00,
2013-02-24 05:41:00,19.0,17.0,-100.00,NNW,340,1.0,1.0,91,0.00,,,0.00,1.000000,,2013-02-24 10:41:00,
2013-02-24 05:51:00,19.0,17.0,-100.00,NNW,340,1.0,1.0,91,0.00,,,0.00,1.000000,,2013-02-24 10:51:00,
2013-02-24 06:21:00,20.0,18.0,-100.00,West,271,0.0,2.0,91,0.00,,,0.00,1.000000,,2013-02-24 11:21:00,
2013-02-24 06:32:00,20.0,18.0,-100.00,West,271,0.0,2.0,91,0.00,,,0.00,1.000000,,2013-02-24 11:32:00,
2013-02-24 06:41:00,20.0,18.0,-100.00,West,271,0.0,2.0,91,0.00,,,0.00,1.000000,,2013-02-24 11:41:00,
2013-02-24 06:52:00,20.0,18.0,-100.00,West,271,0.0,2.0,91,0.00,,,0.00,1.000000,,2013-02-24 11:52:00,
2013-02-24 07:22:00,20.0,18.0,-100.00,SSE,152,1.0,2.0,91,0.00,,,0.00,1.000000,,2013-02-24 12:22:00,
2013-02-24 07:32:00,20.0,18.0,-100.00,SSE,152,1.0,2.0,91,0.00,,,0.00,1.000000,,2013-02-24 12:32:00,
2013-02-24 07:46:00,20.0,18.0,-100.00,SSE,152,1.0,2.0,91,0.00,,,0.00,1.000000,,2013-02-24 12:46:00,
2013-02-24 07:55:00,20.0,18.0,-100.00,SSE,152,1.0,2.0,91,0.00,,,0.00,1.000000,,2013-02-24 12:55:00,
2013-02-24 08:26:00,20.0,18.0,-100.00,NW,321,1.0,3.0,91,0.00,,,0.00,1.000000,,2013-02-24 13:26:00,
2013-02-24 08:34:00,20.0,18.0,-100.00,NW,321,1.0,3.0,91,0.00,,,0.00,1.000000,,2013-02-24 13:34:00,
2013-02-24 08:44:00,20.0,18.0,-100.00,NW,321,1.0,3.0,91,0.00,,,0.00,1.000000,,2013-02-24 13:44:00,
2013-02-24 08:53:00,20.0,18.0,-100.00,NW,321,1.0,3.0,91,0.00,,,0.00,1.000000,,2013-02-24 13:53:00,
2013-02-24 09:34:00,23.0,21.0,-100.00,West,278,2.0,5.0,92,0.00,,,0.00,27.000000,,2013-02-24 14:34:00,
2013-02-24 09:53:00,23.0,21.0,-100.00,West,278,2.0,5.0,92,0.00,,,0.00,27.000000,,2013-02-24 14:53:00,
2013-02-24 10:23:00,26.0,20.0,-100.00,NNW,333,3.0,7.0,79,0.00,,,0.00,100.000000,,2013-02-24 15:23:00,
2013-02-24 10:32:00,26.0,20.0,-100.00,NNW,333,3.0,7.0,79,0.00,,,0.00,100.000000,,2013-02-24 15:32:00,
2013-02-24 10:42:00,26.0,20.0,-100.00,NNW,333,3.0,7.0,79,0.00,,,0.00,100.000000,,2013-02-24 15:42:00,
2013-02-24 10:52:00,26.0,20.0,-100.00,NNW,333,3.0,7.0,79,0.00,,,0.00,100.000000,,2013-02-24 15:52:00,
2013-02-24 11:21:00,29.0,18.0,-100.00,NNW,327,4.0,10.0,64,0.00,,,0.00,247.000000,,2013-02-24 16:21:00,
2013-02-24 11:32:00,29.0,18.0,-100.00,NNW,327,4.0,10.0,64,0.00,,,0.00,247.000000,,2013-02-24 16:32:00,
2013-02-24 11:42:00,29.0,18.0,-100.00,NNW,327,4.0,10.0,64,0.00,,,0.00,247.000000,,2013-02-24 16:42:00,
2013-02-24 11:52:00,29.0,18.0,-100.00,NNW,327,4.0,10.0,64,0.00,,,0.00,247.000000,,2013-02-24 16:52:00,
2013-02-24 12:21:00,31.0,19.0,-100.00,ESE,112,2.0,9.0,60,0.00,,,0.00,325.000000,,2013-02-24 17:21:00,
2013-02-24 12:32:00,31.0,19.0,-100.00,ESE,112,2.0,9.0,60,0.00,,,0.00,325.000000,,2013-02-24 17:32:00,
2013-02-24 12:42:00,31.0,19.0,-100.00,ESE,112,2.0,9.0,60,0.00,,,0.00,325.000000,,2013-02-24 17:42:00,
2013-02-24 12:52:00,31.0,19.0,-100.00,ESE,112,2.0,9.0,60,0.00,,,0.00,325.000000,,2013-02-24 17:52:00,
2013-02-24 13:22:00,31.0,19.0,-100.00,ESE,114,2.0,6.0,60,0.00,,,0.00,254.000000,,2013-02-24 18:22:00,
2013-02-24 13:32:00,31.0,19.0,-100.00,ESE,114,2.0,6.0,60,0.00,,,0.00,254.000000,,2013-02-24 18:32:00,
2013-02-24 13:42:00,31.0,19.0,-100.00,ESE,114,2.0,6.0,60,0.00,,,0.00,254.000000,,2013-02-24 18:42:00,
2013-02-24 13:52:00,31.0,19.0,-100.00,ESE,114,2.0,6.0,60,0.00,,,0.00,254.000000,,2013-02-24 18:52:00,
2013-02-24 14:22:00,33.0,21.0,-100.00,South,178,1.0,7.0,60,0.00,,,0.00,229.000000,,2013-02-24 19:22:00,
2013-02-24 14:32:00,33.0,21.0,-100.00,South,178,1.0,7.0,60,0.00,,,0.00,229.000000,,2013-02-24 19:32:00,
2013-02-24 14:42:00,33.0,21.0,-100.00,South,178,1.0,7.0,60,0.00,,,0.00,229.000000,,2013-02-24 19:42:00,
2013-02-24 14:51:00,33.0,21.0,-100.00,South,178,1.0,7.0,60,0.00,,,0.00,229.000000,,2013-02-24 19:51:00,
2013-02-24 15:21:00,31.0,19.0,-100.00,NNW,330,4.0,6.0,60,0.00,,,0.00,227.000000,,2013-02-24 20:21:00,
2013-02-24 15:32:00,31.0,19.0,-100.00,NNW,330,4.0,6.0,60,0.00,,,0.00,227.000000,,2013-02-24 20:32:00,
2013-02-24 15:42:00,31.0,19.0,-100.00,NNW,330,4.0,6.0,60,0.00,,,0.00,227.000000,,2013-02-24 20:42:00,
2013-02-24 15:52:00,31.0,19.0,-100.00,NNW,330,4.0,6.0,60,0.00,,,0.00,227.000000,,2013-02-24 20:52:00,
2013-02-24 16:21:00,31.0,19.0,-100.00,West,265,3.0,9.0,61,0.00,,,0.00,168.000000,,2013-02-24 21:21:00,
2013-02-24 16:32:00,31.0,19.0,-100.00,West,265,3.0,9.0,61,0.00,,,0.00,168.000000,,2013-02-24 21:32:00,
2013-02-24 16:42:00,31.0,19.0,-100.00,West,265,3.0,9.0,61,0.00,,,0.00,168.000000,,2013-02-24 21:42:00,
2013-02-24 16:52:00,31.0,19.0,-100.00,West,265,3.0,9.0,61,0.00,,,0.00,168.000000,,2013-02-24 21:52:00,
2013-02-24 17:21:00,29.0,20.0,-100.00,NW,311,3.0,7.0,68,0.00,,,0.00,76.000000,,2013-02-24 22:21:00,
2013-02-24 17:32:00,29.0,20.0,-100.00,NW,311,3.0,7.0,68,0.00,,,0.00,76.000000,,2013-02-24 22:32:00,
2013-02-24 17:41:00,29.0,20.0,-100.00,NW,311,3.0,7.0,68,0.00,,,0.00,76.000000,,2013-02-24 22:41:00,
2013-02-24 17:52:00,29.0,20.0,-100.00,NW,311,3.0,7.0,68,0.00,,,0.00,76.000000,,2013-02-24 22:52:00,
2013-02-24 18:21:00,29.0,20.0,-100.00,WNW,300,2.0,5.0,70,0.00,,,0.00,38.000000,,2013-02-24 23:21:00,
2013-02-24 18:32:00,29.0,20.0,-100.00,WNW,300,2.0,5.0,70,0.00,,,0.00,38.000000,,2013-02-24 23:32:00,
2013-02-24 18:42:00,29.0,20.0,-100.00,WNW,300,2.0,5.0,70,0.00,,,0.00,38.000000,,2013-02-24 23:42:00,
2013-02-24 18:52:00,29.0,20.0,-100.00,WNW,300,2.0,5.0,70,0.00,,,0.00,38.000000,,2013-02-24 23:52:00,
2013-02-24 19:21:00,27.0,21.0,-100.00,North,350,1.0,5.0,77,0.00,,,0.00,6.000000,,2013-02-25 00:21:00,
2013-02-24 19:32:00,27.0,21.0,-100.00,North,350,1.0,5.0,77,0.00,,,0.00,6.000000,,2013-02-25 00:32:00,
2013-02-24 19:42:00,27.0,21.0,-100.00,North,350,1.0,5.0,77,0.00,,,0.00,6.000000,,2013-02-25 00:42:00,
2013-02-24 19:51:00,27.0,21.0,-100.00,North,350,1.0,5.0,77,0.00,,,0.00,6.000000,,2013-02-25 00:51:00,
2013-02-24 20:21:00,27.0,22.0,-100.00,WNW,303,1.0,4.0,82,0.00,,,0.00,1.000000,,2013-02-25 01:21:00,
2013-02-24 20:32:00,27.0,22.0,-100.00,WNW,303,1.0,4.0,82,0.00,,,0.00,1.000000,,2013-02-25 01:32:00,
2013-02-24 20:42:00,27.0,22.0,-100.00,WNW,303,1.0,4.0,82,0.00,,,0.00,1.000000,,2013-02-25 01:42:00,
2013-02-24 20:52:00,27.0,22.0,-100.00,WNW,303,1.0,4.0,82,0.00,,,0.00,1.000000,,2013-02-25 01:52:00,
2013-02-24 21:21:00,26.0,23.0,-100.00,SSW,194,1.0,4.0,87,0.00,,,0.00,1.000000,,2013-02-25 02:21:00,
2013-02-24 21:32:00,26.0,23.0,-100.00,SSW,194,1.0,4.0,87,0.00,,,0.00,1.000000,,2013-02-25 02:32:00,
2013-02-24 21:41:00,26.0,23.0,-100.00,SSW,194,1.0,4.0,87,0.00,,,0.00,1.000000,,2013-02-25 02:41:00,
2013-02-24 21:52:00,26.0,23.0,-100.00,SSW,194,1.0,4.0,87,0.00,,,0.00,1.000000,,2013-02-25 02:52:00,
2013-02-24 22:21:00,26.0,21.0,-100.00,SSW,196,1.0,5.0,80,0.00,,,0.00,1.000000,,2013-02-25 03:21:00,
2013-02-24 22:31:00,26.0,21.0,-100.00,SSW,196,1.0,5.0,80,0.00,,,0.00,1.000000,,2013-02-25 03:31:00,
2013-02-24 22:42:00,26.0,21.0,-100.00,SSW,196,1.0,5.0,80,0.00,,,0.00,1.000000,,2013-02-25 03:42:00,
2013-02-24 22:51:00,26.0,21.0,-100.00,SSW,196,1.0,5.0,80,0.00,,,0.00,1.000000,,2013-02-25 03:51:00,
2013-02-24 23:21:00,24.0,20.0,-100.00,SSE,161,1.0,4.0,83,0.00,,,0.00,1.000000,,2013-02-25 04:21:00,
2013-02-24 23:32:00,24.0,20.0,-100.00,SSE,161,1.0,4.0,83,0.00,,,0.00,1.000000,,2013-02-25 04:32:00,
2013-02-24 23:42:00,24.0,20.0,-100.00,SSE,161,1.0,4.0,83,0.00,,,0.00,1.000000,,2013-02-25 04:42:00,
2013-02-24 23:51:00,24.0,20.0,-100.00,SSE,161,1.0,4.0,83,0.00,,,0.00,1.000000,,2013-02-25 04:51:00,